Time;durP1;ratioP1;P1;durP2;ratioP2;P2;SDS_P1;SDS_P2;PMS_P1;PMS_P2;Temp;Humidity;BMP_temperature;BMP_pressure;BME280_temperature;BME280_humidity;BME280_pressure;Samples;Min_cycle;Max_cycle;Signal;HPM_P1;HPM_P2
2023/03/26 00:01:07;;;;;;;12.05;3.80;;;10.30;94.80;;;;;;5074284;28;20025;-73
2023/03/26 00:03:34;;;;;;;14.27;3.65;;;10.30;94.70;;;;;;5075310;28;20085;-73
2023/03/26 00:06:14;;;;;;;16.30;3.53;;;10.30;94.60;;;;;;5074385;28;20052;-73
2023/03/26 00:08:41;;;;;;;17.38;3.28;;;10.30;94.80;;;;;;5074338;28;20025;-73
2023/03/26 00:11:10;;;;;;;11.25;3.10;;;10.40;94.60;;;;;;5075364;28;20050;-73
2023/03/26 00:13:36;;;;;;;15.45;3.38;;;10.40;94.60;;;;;;5075209;28;20044;-73
2023/03/26 00:16:02;;;;;;;15.98;3.42;;;10.40;94.70;;;;;;5075112;28;20033;-73
2023/03/26 00:18:33;;;;;;;14.20;4.13;;;10.40;94.70;;;;;;5075172;28;20055;-73
2023/03/26 00:21:04;;;;;;;16.83;3.83;;;10.40;94.60;;;;;;5074049;28;20482;-73
2023/03/26 00:23:32;;;;;;;13.82;3.50;;;10.50;94.60;;;;;;5075022;28;20485;-73
2023/03/26 00:25:59;;;;;;;10.77;3.75;;;10.50;94.80;;;;;;5074827;28;20017;-73
2023/03/26 00:28:26;;;;;;;19.55;3.70;;;10.40;94.70;;;;;;5073974;28;20032;-73
2023/03/26 00:31:01;;;;;;;12.95;3.85;;;10.50;94.70;;;;;;5073706;28;20025;-73
2023/03/26 00:33:27;;;;;;;21.25;4.45;;;10.50;94.70;;;;;;5074586;28;20039;-74
2023/03/26 00:35:55;;;;;;;16.08;4.32;;;10.50;94.70;;;;;;5073730;28;20033;-73
2023/03/26 00:38:22;;;;;;;18.95;4.57;;;10.50;94.90;;;;;;5074709;28;20048;-73
2023/03/26 00:40:49;;;;;;;13.57;4.07;;;10.40;95.10;;;;;;5073624;28;20029;-73
2023/03/26 00:43:19;;;;;;;14.27;3.00;;;10.30;95.40;;;;;;5073638;28;20016;-74
2023/03/26 00:45:50;;;;;;;9.65;3.92;;;10.30;95.60;;;;;;5073634;28;20027;-73
2023/03/26 00:48:16;;;;;;;16.00;3.70;;;10.20;95.60;;;;;;5074521;28;20025;-74
2023/03/26 00:50:45;;;;;;;17.67;4.07;;;10.20;95.60;;;;;;5073552;28;20040;-74
2023/03/26 00:53:12;;;;;;;16.88;3.75;;;10.20;95.90;;;;;;5074402;28;20025;-74
2023/03/26 00:55:42;;;;;;;13.27;2.90;;;10.10;96.00;;;;;;5057108;28;20033;-73
2023/03/26 00:58:10;;;;;;;16.58;3.35;;;10.20;95.90;;;;;;5073361;28;20029;-73
2023/03/26 01:00:47;;;;;;;26.73;3.90;;;10.20;95.70;;;;;;5074154;28;20036;-73
2023/03/26 01:03:15;;;;;;;17.23;4.22;;;10.20;95.60;;;;;;5074258;28;20390;-73
2023/03/26 01:05:43;;;;;;;11.10;3.58;;;10.30;95.40;;;;;;5073212;28;20025;-73
2023/03/26 01:08:19;;;;;;;11.25;3.17;;;10.30;95.30;;;;;;5074123;28;20444;-73
2023/03/26 01:10:49;;;;;;;10.05;2.58;;;10.30;95.20;;;;;;5074107;28;20046;-73
2023/03/26 01:13:22;;;;;;;24.77;4.40;;;10.30;95.20;;;;;;5073035;28;20084;-73
2023/03/26 01:15:49;;;;;;;13.43;3.28;;;10.30;95.10;;;;;;5073989;28;20025;-73
2023/03/26 01:18:25;;;;;;;8.85;2.65;;;10.20;95.10;;;;;;5073073;28;20089;-73
2023/03/26 01:21:03;;;;;;;15.70;2.97;;;10.10;94.90;;;;;;5072826;28;20434;-73
2023/03/26 01:23:38;;;;;;;13.45;3.38;;;10.10;95.00;;;;;;5074027;28;20024;-73
2023/03/26 01:26:30;;;;;;;12.73;2.83;;;10.00;94.90;;;;;;5072707;28;20021;-73
2023/03/26 01:29:01;;;;;;;15.73;4.07;;;9.90;95.20;;;;;;5072710;28;20029;-73
2023/03/26 01:31:35;;;;;;;15.68;2.92;;;9.90;95.20;;;;;;5073724;28;20029;-73
2023/03/26 01:34:29;;;;;;;13.30;3.08;;;9.90;95.20;;;;;;5073505;28;20434;-72
2023/03/26 01:37:22;;;;;;;17.20;3.33;;;9.90;95.20;;;;;;5073751;28;20105;-73
2023/03/26 01:40:18;;;;;;;11.90;2.78;;;9.80;95.10;;;;;;5073662;28;20021;-73
2023/03/26 01:43:16;;;;;;;11.32;2.80;;;9.80;95.30;;;;;;5058903;28;20048;-73
2023/03/26 01:45:45;;;;;;;17.48;2.78;;;9.70;95.40;;;;;;5073487;28;20475;-73
2023/03/26 01:48:11;;;;;;;11.23;2.33;;;9.70;95.40;;;;;;5072405;28;20032;-73
2023/03/26 01:50:37;;;;;;;12.70;3.10;;;9.70;95.40;;;;;;5073406;28;20032;-73
2023/03/26 01:53:03;;;;;;;9.32;2.67;;;9.60;95.40;;;;;;5072353;28;20029;-73
2023/03/26 01:55:54;;;;;;;16.58;3.10;;;9.60;95.30;;;;;;5073447;28;20088;-73
2023/03/26 01:58:40;;;;;;;12.80;2.88;;;9.70;95.10;;;;;;5072371;28;20055;-73
2023/03/26 02:01:29;;;;;;;9.07;2.28;;;9.50;95.10;;;;;;5073218;28;20060;-74
2023/03/26 02:04:11;;;;;;;16.35;2.83;;;9.50;95.30;;;;;;5072219;28;20176;-74
2023/03/26 02:06:39;;;;;;;15.95;3.00;;;9.40;95.30;;;;;;5072276;28;20458;-74
2023/03/26 02:09:10;;;;;;;13.40;2.55;;;9.40;95.40;;;;;;5073264;28;20397;-74
2023/03/26 02:11:38;;;;;;;14.30;2.88;;;9.40;95.10;;;;;;5073165;28;20541;-74
2023/03/26 02:14:07;;;;;;;14.02;2.50;;;9.20;95.20;;;;;;5073103;28;20533;-73
2023/03/26 02:16:33;;;;;;;9.90;2.55;;;9.20;95.50;;;;;;5073085;28;20021;-73
2023/03/26 02:18:59;;;;;;;9.05;2.50;;;9.10;96.10;;;;;;5073050;28;20025;-74
2023/03/26 02:21:26;;;;;;;10.77;2.28;;;9.10;96.40;;;;;;5072974;28;20026;-73
2023/03/26 02:24:01;;;;;;;10.82;2.80;;;9.10;96.40;;;;;;5072060;28;20048;-74
2023/03/26 02:26:28;;;;;;;14.75;2.70;;;9.10;96.30;;;;;;5072949;28;20021;-74
2023/03/26 02:28:53;;;;;;;12.75;2.45;;;9.10;96.30;;;;;;5072116;28;20032;-74
2023/03/26 02:31:20;;;;;;;12.57;3.50;;;9.10;96.20;;;;;;5072042;28;20037;-73
2023/03/26 02:33:48;;;;;;;16.38;2.78;;;9.10;96.20;;;;;;5072779;28;20041;-73
2023/03/26 02:36:16;;;;;;;11.82;2.30;;;9.10;96.30;;;;;;5071885;28;20040;-74
2023/03/26 02:38:42;;;;;;;13.40;2.63;;;9.00;96.20;;;;;;5072889;28;20017;-73
2023/03/26 02:41:08;;;;;;;12.73;2.80;;;9.00;96.20;;;;;;5038673;28;20037;-74
2023/03/26 02:43:34;;;;;;;12.68;3.33;;;9.00;96.50;;;;;;5071806;28;20025;-73
2023/03/26 02:46:00;;;;;;;12.40;2.42;;;8.90;96.50;;;;;;5071918;28;20047;-74
2023/03/26 02:48:25;;;;;;;16.83;2.45;;;9.00;96.40;;;;;;5072782;28;20072;-74
2023/03/26 02:50:53;;;;;;;12.50;2.38;;;8.90;96.40;;;;;;5055299;28;20033;-73
2023/03/26 02:53:28;;;;;;;16.85;2.40;;;8.90;96.30;;;;;;5055296;28;20029;-74
2023/03/26 02:55:58;;;;;;;9.55;2.10;;;8.90;96.30;;;;;;5076639;28;20497;-74
2023/03/26 02:58:25;;;;;;;17.00;2.53;;;8.90;96.20;;;;;;5076591;28;20021;-73
2023/03/26 03:00:54;;;;;;;13.77;2.38;;;8.90;96.10;;;;;;5075540;28;20025;-73
2023/03/26 03:03:23;;;;;;;13.15;2.35;;;8.90;95.90;;;;;;5075722;28;20025;-74
2023/03/26 03:05:53;;;;;;;11.88;2.28;;;8.90;96.00;;;;;;5075424;28;20021;-73
2023/03/26 03:08:20;;;;;;;9.35;2.28;;;8.90;95.80;;;;;;5075622;28;20071;-73
2023/03/26 03:11:02;;;;;;;10.48;1.98;;;8.90;95.80;;;;;;5059018;28;20044;-73
2023/03/26 03:13:28;;;;;;;13.70;2.80;;;8.80;95.80;;;;;;5075374;28;20033;-74
2023/03/26 03:15:54;;;;;;;20.48;3.60;;;8.90;95.90;;;;;;5058706;28;20130;-73
2023/03/26 03:18:21;;;;;;;6.20;1.88;;;8.90;96.00;;;;;;5076263;28;20028;-74
2023/03/26 03:20:48;;;;;;;9.23;2.10;;;8.90;96.00;;;;;;5075291;28;20029;-73
2023/03/26 03:23:14;;;;;;;8.95;2.67;;;8.90;96.20;;;;;;5076182;28;20025;-73
2023/03/26 03:25:41;;;;;;;6.20;2.00;;;9.00;96.10;;;;;;5076088;28;20052;-74
2023/03/26 03:28:07;;;;;;;13.43;1.98;;;9.10;96.00;;;;;;5075970;28;20021;-74
2023/03/26 03:30:33;;;;;;;9.30;2.38;;;9.00;96.00;;;;;;5074973;28;20441;-73
2023/03/26 03:33:01;;;;;;;13.60;2.97;;;9.10;95.90;;;;;;5075016;28;20021;-74
2023/03/26 03:35:26;;;;;;;13.07;2.58;;;9.10;95.90;;;;;;5075763;28;20033;-73
2023/03/26 03:37:53;;;;;;;6.80;1.90;;;9.10;95.80;;;;;;5058356;28;20071;-74
2023/03/26 03:40:18;;;;;;;10.32;2.35;;;9.20;95.80;;;;;;5075735;28;20033;-74
2023/03/26 03:42:45;;;;;;;7.22;1.88;;;9.20;95.60;;;;;;5074809;28;20025;-73
2023/03/26 03:45:11;;;;;;;7.47;1.90;;;9.10;95.40;;;;;;5074759;28;20025;-74
2023/03/26 03:47:37;;;;;;;11.00;2.58;;;9.20;95.40;;;;;;5074707;28;20021;-73
2023/03/26 03:50:04;;;;;;;8.70;1.95;;;9.20;95.30;;;;;;5075621;28;20029;-74
2023/03/26 03:52:29;;;;;;;12.60;2.03;;;9.20;95.30;;;;;;5074553;28;20017;-73
2023/03/26 03:54:56;;;;;;;15.88;2.15;;;9.20;95.20;;;;;;5075519;28;20032;-73
2023/03/26 03:57:22;;;;;;;10.20;2.00;;;9.20;95.10;;;;;;5074531;28;20071;-74
2023/03/26 03:59:48;;;;;;;7.05;2.03;;;9.20;95.10;;;;;;5074391;28;20024;-73
2023/03/26 04:02:24;;;;;;;9.35;2.20;;;9.20;95.10;;;;;;5074568;28;20025;-73
2023/03/26 04:04:53;;;;;;;11.27;2.63;;;9.20;95.10;;;;;;5075223;28;20089;-74
2023/03/26 04:07:19;;;;;;;9.48;2.05;;;9.20;95.20;;;;;;5075438;28;20073;-74
2023/03/26 04:09:45;;;;;;;10.52;3.00;;;9.20;95.20;;;;;;5057654;28;20022;-74
2023/03/26 04:12:11;;;;;;;13.20;2.35;;;9.20;95.20;;;;;;5057612;28;20025;-74
2023/03/26 04:14:36;;;;;;;16.25;2.92;;;9.30;95.10;;;;;;5057427;28;20032;-74
2023/03/26 04:17:04;;;;;;;11.85;2.28;;;9.30;95.00;;;;;;5074237;28;20029;-73
2023/03/26 04:19:30;;;;;;;13.27;2.30;;;9.30;95.10;;;;;;5075087;28;20454;-74
2023/03/26 04:22:01;;;;;;;8.93;2.50;;;9.30;95.10;;;;;;5074932;28;20038;-74
2023/03/26 04:24:32;;;;;;;14.43;2.20;;;9.40;95.10;;;;;;5075070;28;20028;-73
2023/03/26 04:26:59;;;;;;;11.13;2.25;;;9.40;95.20;;;;;;5074932;28;20017;-74
2023/03/26 04:29:26;;;;;;;10.20;1.90;;;9.40;95.10;;;;;;5074886;28;20025;-74
2023/03/26 04:31:57;;;;;;;7.72;1.92;;;9.50;95.10;;;;;;5073969;28;20039;-73
2023/03/26 04:34:23;;;;;;;8.88;1.50;;;9.50;95.10;;;;;;5074652;28;20048;-74
2023/03/26 04:36:53;;;;;;;4.75;1.80;;;9.60;95.10;;;;;;5074759;28;20036;-73
2023/03/26 04:39:20;;;;;;;10.45;1.90;;;9.50;95.10;;;;;;5073837;28;20032;-73
2023/03/26 04:41:47;;;;;;;8.68;2.30;;;9.60;95.10;;;;;;5074575;28;20024;-73
2023/03/26 04:44:15;;;;;;;11.05;2.15;;;9.50;94.90;;;;;;5073642;28;20032;-73
2023/03/26 04:46:42;;;;;;;9.25;2.03;;;9.50;94.80;;;;;;5074555;28;20029;-74
2023/03/26 04:49:08;;;;;;;8.10;2.20;;;9.40;94.90;;;;;;5057090;28;20056;-74
2023/03/26 04:51:40;;;;;;;9.27;2.13;;;9.40;95.00;;;;;;5074493;28;20024;-73
2023/03/26 04:54:07;;;;;;;11.13;2.50;;;9.30;95.20;;;;;;5074450;28;20029;-74
2023/03/26 04:56:37;;;;;;;11.27;2.50;;;9.30;95.20;;;;;;5073392;28;20121;-73
2023/03/26 04:59:03;;;;;;;9.07;2.47;;;9.30;95.20;;;;;;5074455;28;20029;-74
2023/03/26 05:01:29;;;;;;;9.38;2.15;;;9.20;95.40;;;;;;5073297;28;20055;-74
2023/03/26 05:03:57;;;;;;;7.60;2.10;;;9.20;95.50;;;;;;5074208;28;20025;-73
2023/03/26 05:06:27;;;;;;;11.73;2.80;;;9.10;95.80;;;;;;5073229;28;20043;-74
2023/03/26 05:08:53;;;;;;;17.83;2.80;;;9.10;95.90;;;;;;5057131;28;20052;-73
2023/03/26 05:11:19;;;;;;;11.88;2.30;;;9.10;96.00;;;;;;5073020;28;20055;-73
2023/03/26 05:13:45;;;;;;;12.43;1.95;;;9.10;96.10;;;;;;5074038;28;20048;-73
2023/03/26 05:16:12;;;;;;;13.38;2.22;;;9.10;96.20;;;;;;5073037;28;20039;-73
2023/03/26 05:18:38;;;;;;;8.63;1.83;;;9.10;96.30;;;;;;5073561;28;20021;-73
2023/03/26 05:21:03;;;;;;;5.65;1.77;;;9.20;96.40;;;;;;5073852;28;20044;-73
2023/03/26 05:23:29;;;;;;;9.70;2.08;;;9.20;96.50;;;;;;5056292;28;20025;-73
2023/03/26 05:25:55;;;;;;;10.93;1.95;;;9.30;96.40;;;;;;5072793;28;20021;-73
2023/03/26 05:28:23;;;;;;;7.10;1.92;;;9.40;96.40;;;;;;5072868;28;20033;-73
2023/03/26 05:30:51;;;;;;;8.30;2.00;;;9.50;96.30;;;;;;5073720;28;20021;-73
2023/03/26 05:33:18;;;;;;;7.85;2.08;;;9.50;96.20;;;;;;5056406;28;20025;-73
2023/03/26 05:35:43;;;;;;;8.93;2.72;;;9.40;96.10;;;;;;5072491;28;20184;-73
2023/03/26 05:38:09;;;;;;;5.47;2.38;;;9.40;96.10;;;;;;5072665;28;20489;-73
2023/03/26 05:40:35;;;;;;;12.30;2.05;;;9.40;96.20;;;;;;5055985;28;20152;-73
2023/03/26 05:43:01;;;;;;;10.82;2.10;;;9.40;96.30;;;;;;5072509;28;20021;-73
2023/03/26 05:45:27;;;;;;;10.45;2.15;;;9.40;96.20;;;;;;5072456;28;20013;-73
2023/03/26 05:47:54;;;;;;;10.52;2.42;;;9.50;96.20;;;;;;5073444;28;20086;-73
2023/03/26 05:50:20;;;;;;;11.90;2.00;;;9.50;96.10;;;;;;5073442;28;20028;-73
2023/03/26 05:52:45;;;;;;;7.47;2.50;;;9.50;96.20;;;;;;5072349;28;20033;-73
2023/03/26 05:55:12;;;;;;;7.63;2.22;;;9.40;96.10;;;;;;5072427;28;20040;-73
2023/03/26 05:57:38;;;;;;;10.10;2.17;;;9.40;96.20;;;;;;5072273;28;20089;-73
2023/03/26 06:00:07;;;;;;;9.13;2.60;;;9.40;96.20;;;;;;5073208;28;20032;-74
2023/03/26 06:02:34;;;;;;;9.45;2.25;;;9.40;96.30;;;;;;5073384;28;20032;-74
2023/03/26 06:05:01;;;;;;;7.38;2.20;;;9.40;96.40;;;;;;5073240;28;20063;-73
2023/03/26 06:07:27;;;;;;;10.23;2.50;;;9.50;96.40;;;;;;5073215;28;20397;-73
2023/03/26 06:09:53;;;;;;;8.77;2.25;;;9.40;96.40;;;;;;5072114;28;20029;-73
2023/03/26 06:12:19;;;;;;;11.02;2.85;;;9.40;96.40;;;;;;5072133;28;20036;-73
2023/03/26 06:14:46;;;;;;;6.78;2.58;;;9.40;96.50;;;;;;5055482;28;20033;-73
2023/03/26 06:17:12;;;;;;;11.25;2.33;;;9.50;96.50;;;;;;5055644;28;20017;-73
2023/03/26 06:19:37;;;;;;;13.15;2.80;;;9.50;96.40;;;;;;5073066;28;20070;-73
2023/03/26 06:22:04;;;;;;;10.65;2.15;;;9.50;96.40;;;;;;5055475;28;20033;-73
2023/03/26 06:24:29;;;;;;;12.73;2.38;;;9.50;96.30;;;;;;5073044;28;20021;-74
2023/03/26 06:26:55;;;;;;;10.57;3.03;;;9.30;96.50;;;;;;5072957;28;20455;-73
2023/03/26 06:29:21;;;;;;;8.27;2.80;;;9.30;96.70;;;;;;5074252;28;20025;-73
2023/03/26 06:31:46;;;;;;;6.00;2.55;;;9.30;96.80;;;;;;5076107;28;20064;-73
2023/03/26 06:34:12;;;;;;;10.40;3.25;;;9.30;96.90;;;;;;5076942;28;20056;-73
2023/03/26 06:36:38;;;;;;;7.40;2.25;;;9.30;97.00;;;;;;5077041;28;20033;-73
2023/03/26 06:39:04;;;;;;;13.00;2.65;;;9.30;97.00;;;;;;5059349;28;20029;-73
2023/03/26 06:41:33;;;;;;;13.90;2.83;;;9.30;97.20;;;;;;5076857;28;20099;-74
2023/03/26 06:43:59;;;;;;;9.20;2.35;;;9.30;97.20;;;;;;5075882;28;20028;-73
2023/03/26 06:46:25;;;;;;;14.93;2.65;;;9.30;97.30;;;;;;5059227;28;20025;-73
2023/03/26 06:48:50;;;;;;;11.32;2.85;;;9.30;97.30;;;;;;5076793;28;20017;-74
2023/03/26 06:51:16;;;;;;;11.50;2.92;;;9.40;97.30;;;;;;5076745;28;20029;-73
2023/03/26 06:53:42;;;;;;;9.80;2.35;;;9.40;97.30;;;;;;5058942;28;20033;-73
2023/03/26 06:56:08;;;;;;;7.15;1.88;;;9.40;97.20;;;;;;5075678;28;20032;-73
2023/03/26 06:58:34;;;;;;;10.77;2.58;;;9.40;97.20;;;;;;5058980;28;20471;-73
2023/03/26 07:00:59;;;;;;;7.70;2.50;;;9.40;97.40;;;;;;5075634;28;20033;-73
2023/03/26 07:03:25;;;;;;;7.80;2.38;;;9.40;97.30;;;;;;5058878;28;20018;-74
2023/03/26 07:05:51;;;;;;;11.93;3.10;;;9.40;97.50;;;;;;5075584;28;20141;-72
2023/03/26 07:08:16;;;;;;;7.90;3.42;;;9.40;97.40;;;;;;5076457;28;20032;-73
2023/03/26 07:10:42;;;;;;;9.98;3.00;;;9.40;97.40;;;;;;5076363;28;20044;-73
2023/03/26 07:13:08;;;;;;;8.60;2.50;;;9.40;97.40;;;;;;5075305;28;20045;-73
2023/03/26 07:15:34;;;;;;;7.07;2.63;;;9.40;97.40;;;;;;5076264;28;20033;-72
2023/03/26 07:18:00;;;;;;;12.45;2.95;;;9.40;97.40;;;;;;5075463;28;20108;-73
2023/03/26 07:20:26;;;;;;;11.38;2.38;;;9.40;97.60;;;;;;5075220;28;20036;-73
2023/03/26 07:22:52;;;;;;;10.43;2.80;;;9.40;97.60;;;;;;5075120;28;20036;-73
2023/03/26 07:25:18;;;;;;;11.73;3.05;;;9.50;97.70;;;;;;5076237;28;20029;-73
2023/03/26 07:28:11;;;;;;;10.57;2.38;;;9.50;97.70;;;;;;5074979;28;20097;-73
2023/03/26 07:30:49;;;;;;;9.65;3.00;;;9.50;97.70;;;;;;5074963;28;20032;-73
2023/03/26 07:33:32;;;;;;;11.50;3.85;;;9.50;97.80;;;;;;5075958;28;20021;-74
2023/03/26 07:36:13;;;;;;;8.90;2.83;;;9.50;97.80;;;;;;5074966;28;20036;-73
2023/03/26 07:39:01;;;;;;;8.30;2.58;;;9.50;97.80;;;;;;5076018;28;20029;-73
2023/03/26 07:41:39;;;;;;;13.43;2.70;;;9.50;98.00;;;;;;5075246;28;20029;-74
2023/03/26 07:44:16;;;;;;;12.43;3.05;;;9.50;98.00;;;;;;5075796;28;20025;-73
2023/03/26 07:46:42;;;;;;;8.57;2.97;;;9.40;98.00;;;;;;5075654;28;20021;-73
2023/03/26 07:49:11;;;;;;;13.27;2.92;;;9.50;98.20;;;;;;5041664;28;20033;-74
2023/03/26 07:51:37;;;;;;;13.32;2.83;;;9.50;98.20;;;;;;5074590;28;20088;-74
2023/03/26 07:54:03;;;;;;;12.38;3.05;;;9.50;98.00;;;;;;5075552;28;20044;-73
2023/03/26 07:56:47;;;;;;;6.85;2.65;;;9.50;98.20;;;;;;5057838;28;20026;-74
2023/03/26 07:59:25;;;;;;;9.48;3.00;;;9.50;98.30;;;;;;5075493;28;20052;-73
2023/03/26 08:02:07;;;;;;;6.68;2.90;;;9.50;98.40;;;;;;5075384;28;20027;-73
2023/03/26 08:04:33;;;;;;;10.70;2.65;;;9.50;98.70;;;;;;5075417;28;20028;-74
2023/03/26 08:07:27;;;;;;;7.70;3.13;;;9.50;98.40;;;;;;5074273;28;20029;-73
2023/03/26 08:10:05;;;;;;;8.30;2.45;;;9.50;98.50;;;;;;5074319;28;20021;-74
2023/03/26 08:13:01;;;;;;;10.55;3.13;;;9.50;98.50;;;;;;5071571;28;20085;-74
2023/03/26 08:15:43;;;;;;;10.73;2.92;;;9.60;98.60;;;;;;5061207;28;20033;-73
2023/03/26 08:18:15;;;;;;;;;;;9.60;98.50;;;;;;5075589;28;20017;-73
2023/03/26 08:20:48;;;;;;;7.80;2.88;;;9.60;98.60;;;;;;5075023;28;19939;-74
2023/03/26 08:23:31;;;;;;;6.70;2.85;;;9.60;98.60;;;;;;5075072;28;20020;-73
2023/03/26 08:26:05;;;;;;;;;;;9.60;98.70;;;;;;5075475;28;20025;-73
2023/03/26 08:29:01;;;;;;;10.27;2.83;;;9.60;98.60;;;;;;5074995;28;19904;-73
2023/03/26 08:31:34;;;;;;;8.25;2.83;;;9.50;98.80;;;;;;5075047;28;20108;-73
2023/03/26 08:34:00;;;;;;;11.27;2.78;;;9.50;98.90;;;;;;5074658;28;20512;-73
2023/03/26 08:36:26;;;;;;;10.20;2.90;;;9.50;98.90;;;;;;5074792;28;20029;-73
2023/03/26 08:38:52;;;;;;;7.07;2.75;;;9.60;99.00;;;;;;5073757;28;20056;-73
2023/03/26 08:41:37;;;;;;;7.43;2.20;;;9.50;99.10;;;;;;5073633;28;20025;-73
2023/03/26 08:44:20;;;;;;;7.18;2.70;;;9.50;99.20;;;;;;5074656;28;20052;-73
2023/03/26 08:47:40;;;;;;;9.23;2.70;;;9.60;99.30;;;;;;5073616;28;20029;-73
2023/03/26 08:50:17;;;;;;;6.88;2.30;;;9.60;99.10;;;;;;4993781;28;20035;-73
2023/03/26 08:52:56;;;;;;;5.97;2.50;;;9.60;99.30;;;;;;5072524;28;20032;-73
2023/03/26 08:55:58;;;;;;;6.68;2.38;;;9.60;99.30;;;;;;5074442;28;20029;-73
2023/03/26 08:58:27;;;;;;;7.68;2.45;;;9.60;99.50;;;;;;5073457;28;20024;-73
2023/03/26 09:01:26;;;;;;;6.85;2.22;;;9.60;99.50;;;;;;5074205;28;20051;-73
2023/03/26 09:04:16;;;;;;;8.55;2.78;;;9.60;99.60;;;;;;5074328;28;20556;-73
2023/03/26 09:06:41;;;;;;;10.02;2.55;;;9.60;99.60;;;;;;5074329;28;20028;-73
2023/03/26 09:09:49;;;;;;;9.63;3.17;;;9.60;99.60;;;;;;5074138;28;20486;-73
2023/03/26 09:12:27;;;;;;;9.90;4.03;;;9.60;99.60;;;;;;5073145;28;20055;-73
2023/03/26 09:15:01;;;;;;;7.93;3.08;;;9.60;99.60;;;;;;5074158;28;20036;-73
2023/03/26 09:17:52;;;;;;;7.43;2.85;;;9.70;99.50;;;;;;5074145;28;20025;-73
2023/03/26 09:20:27;;;;;;;8.68;2.80;;;9.70;99.60;;;;;;5073839;28;20081;-73
2023/03/26 09:23:17;;;;;;;5.47;2.08;;;9.70;99.50;;;;;;5072888;28;20021;-73
2023/03/26 09:26:02;;;;;;;10.85;2.80;;;9.60;99.60;;;;;;5072843;28;20122;-73
2023/03/26 09:28:52;;;;;;;5.93;2.65;;;9.70;99.50;;;;;;5073864;28;20088;-73
2023/03/26 09:31:39;;;;;;;8.93;2.95;;;9.70;99.80;;;;;;5072680;28;20025;-74
2023/03/26 09:34:23;;;;;;;9.20;2.65;;;9.70;99.80;;;;;;5073453;28;20049;-73
2023/03/26 09:36:56;;;;;;;4.50;2.22;;;9.80;99.90;;;;;;5073737;28;20053;-74
2023/03/26 09:39:35;;;;;;;;;;;9.80;99.90;;;;;;5074049;28;20032;-74
2023/03/26 09:42:16;;;;;;;5.45;2.50;;;9.90;99.80;;;;;;5072414;28;19913;-74
2023/03/26 09:44:48;;;;;;;11.68;3.67;;;9.80;99.90;;;;;;5072493;28;20035;-73
2023/03/26 09:47:37;;;;;;;9.10;2.60;;;9.80;99.90;;;;;;5072460;28;20048;-73
2023/03/26 09:50:28;;;;;;;7.10;2.67;;;9.90;99.80;;;;;;5072450;28;20051;-74
2023/03/26 09:53:25;;;;;;;6.38;2.70;;;9.90;99.70;;;;;;5073560;28;20085;-73
2023/03/26 09:56:26;;;;;;;8.05;2.70;;;9.90;99.60;;;;;;5073431;28;20032;-73
2023/03/26 09:59:07;;;;;;;7.05;3.15;;;9.90;99.80;;;;;;5072587;28;20021;-73
2023/03/26 10:01:43;;;;;;;6.10;2.78;;;9.90;99.70;;;;;;5073365;28;20086;-74
2023/03/26 10:04:39;;;;;;;6.25;2.50;;;9.90;99.80;;;;;;5073016;28;20032;-74
2023/03/26 10:07:25;;;;;;;10.07;2.75;;;10.00;99.80;;;;;;5072241;28;20052;-73
2023/03/26 10:10:03;;;;;;;5.57;2.40;;;10.10;99.80;;;;;;5072184;28;20430;-74
2023/03/26 10:12:50;;;;;;;3.85;1.90;;;10.10;99.80;;;;;;5073116;28;20040;-74
2023/03/26 10:15:35;;;;;;;4.50;1.75;;;10.20;99.70;;;;;;5073114;28;20021;-73
2023/03/26 10:18:26;;;;;;;3.65;1.58;;;10.20;99.40;;;;;;5073168;28;20021;-73
2023/03/26 10:21:02;;;;;;;4.10;1.30;;;10.20;99.10;;;;;;5073203;28;20040;-73
2023/03/26 10:23:34;;;;;;;4.38;1.65;;;10.20;99.20;;;;;;5073081;28;20024;-73
2023/03/26 10:26:21;;;;;;;2.78;1.02;;;10.30;99.20;;;;;;5072998;28;20374;-73
2023/03/26 10:29:04;;;;;;;2.80;0.90;;;10.30;98.50;;;;;;5073161;28;20029;-73
2023/03/26 10:31:46;;;;;;;3.55;1.00;;;10.30;98.60;;;;;;5073094;28;20044;-73
2023/03/26 10:34:17;;;;;;;2.63;0.87;;;10.20;98.10;;;;;;5072768;28;20059;-73
2023/03/26 10:37:05;;;;;;;3.33;0.90;;;10.10;97.80;;;;;;5072951;28;20274;-73
2023/03/26 10:40:04;;;;;;;6.10;1.35;;;10.10;97.70;;;;;;5073003;28;20021;-74
2023/03/26 10:42:57;;;;;;;4.65;1.65;;;10.10;97.80;;;;;;5072942;28;20029;-74
2023/03/26 10:45:47;;;;;;;3.42;1.17;;;10.10;98.10;;;;;;5072915;28;20056;-74
2023/03/26 10:48:53;;;;;;;2.25;0.90;;;10.20;98.40;;;;;;5072916;28;20032;-73
2023/03/26 10:51:39;;;;;;;4.15;1.50;;;10.20;98.40;;;;;;5068868;28;20044;-74
2023/03/26 10:54:25;;;;;;;3.00;0.90;;;10.20;98.30;;;;;;5071793;28;20037;-73
2023/03/26 10:56:51;;;;;;;2.45;0.65;;;10.20;98.40;;;;;;5071859;28;20021;-73
2023/03/26 10:59:17;;;;;;;5.25;0.85;;;10.20;98.50;;;;;;5072896;28;20037;-73
2023/03/26 11:02:05;;;;;;;1.60;0.60;;;10.20;97.80;;;;;;5055121;28;20025;-73
2023/03/26 11:05:08;;;;;;;1.95;0.77;;;10.20;97.90;;;;;;5072704;28;20100;-73
2023/03/26 11:07:58;;;;;;;0.93;0.40;;;10.20;97.60;;;;;;5072635;28;20021;-73
2023/03/26 11:10:38;;;;;;;2.45;0.60;;;10.20;97.30;;;;;;5072720;28;20079;-73
2023/03/26 11:13:45;;;;;;;5.32;1.17;;;10.20;97.60;;;;;;5072640;28;20021;-74
2023/03/26 11:16:22;;;;;;;1.58;0.90;;;10.20;97.50;;;;;;4978030;28;20048;-73
2023/03/26 11:18:48;;;;;;;1.58;0.80;;;10.20;97.60;;;;;;4979336;28;20023;-73
2023/03/26 11:21:21;;;;;;;4.05;1.10;;;10.20;98.00;;;;;;5039290;28;20062;-73
2023/03/26 11:23:58;;;;;;;4.35;1.17;;;10.30;98.30;;;;;;5076216;28;20051;-73
2023/03/26 11:26:54;;;;;;;6.72;1.58;;;10.30;98.50;;;;;;5076228;28;20515;-74
2023/03/26 11:29:44;;;;;;;3.45;1.60;;;10.40;98.60;;;;;;5075064;28;20084;-73
2023/03/26 11:32:16;;;;;;;7.70;1.95;;;10.40;98.60;;;;;;5076197;28;20028;-73
2023/03/26 11:34:51;;;;;;;3.30;1.10;;;10.50;98.60;;;;;;5075900;28;20048;-74
2023/03/26 11:37:33;;;;;;;1.98;1.25;;;10.50;98.60;;;;;;5075994;28;20021;-74
2023/03/26 11:40:05;;;;;;;5.25;1.05;;;10.50;98.40;;;;;;5075932;28;20032;-73
2023/03/26 11:42:31;;;;;;;1.83;1.10;;;10.50;97.90;;;;;;5074866;28;20063;-72
2023/03/26 11:45:03;;;;;;;3.47;0.80;;;10.60;97.90;;;;;;5074777;28;20037;-74
2023/03/26 11:47:41;;;;;;;2.38;0.73;;;10.50;97.90;;;;;;5075847;28;20041;-74
2023/03/26 11:50:09;;;;;;;3.25;0.80;;;10.60;97.80;;;;;;5074735;28;20055;-74
2023/03/26 11:52:35;;;;;;;2.13;0.60;;;10.60;97.80;;;;;;5074681;28;20075;-73
2023/03/26 11:55:02;;;;;;;2.63;1.02;;;10.60;97.80;;;;;;5074692;28;20033;-73
2023/03/26 11:57:32;;;;;;;2.30;0.80;;;10.60;97.40;;;;;;5058080;28;20021;-74
2023/03/26 12:00:26;;;;;;;1.90;1.15;;;10.60;97.50;;;;;;5075678;28;20013;-74
2023/03/26 12:02:56;;;;;;;2.92;1.35;;;10.60;97.20;;;;;;5075168;28;20477;-74
2023/03/26 12:05:25;;;;;;;3.38;0.95;;;10.60;97.30;;;;;;5075483;28;20017;-73
2023/03/26 12:08:03;;;;;;;4.40;1.63;;;10.60;97.50;;;;;;5075374;28;20024;-73
2023/03/26 12:10:41;;;;;;;3.05;1.38;;;10.60;97.60;;;;;;5075311;28;20535;-74
2023/03/26 12:13:20;;;;;;;2.25;1.10;;;10.70;97.70;;;;;;5041093;28;20045;-75
2023/03/26 12:15:45;;;;;;;1.92;0.95;;;10.70;97.70;;;;;;5074173;28;20051;-73
2023/03/26 12:18:26;;;;;;;1.95;1.05;;;10.60;97.80;;;;;;5075159;28;20025;-73
2023/03/26 12:21:04;;;;;;;1.85;0.95;;;10.70;97.80;;;;;;5075006;28;20029;-74
2023/03/26 12:23:42;;;;;;;1.85;1.15;;;10.70;97.60;;;;;;5073974;28;20017;-73
2023/03/26 12:26:18;;;;;;;4.05;1.00;;;10.70;97.50;;;;;;5073972;28;20036;-74
2023/03/26 12:28:49;;;;;;;3.40;1.10;;;10.70;97.10;;;;;;5074992;28;20021;-74
2023/03/26 12:31:17;;;;;;;4.15;0.95;;;10.70;97.30;;;;;;5073926;28;20021;-74
2023/03/26 12:33:49;;;;;;;2.03;1.10;;;10.70;97.30;;;;;;5074699;28;20031;-74
2023/03/26 12:36:21;;;;;;;2.35;1.35;;;10.70;97.40;;;;;;5073868;28;20093;-73
2023/03/26 12:38:47;;;;;;;1.88;0.90;;;10.80;97.40;;;;;;5073783;28;20029;-73
2023/03/26 12:41:18;;;;;;;4.38;1.55;;;10.80;97.10;;;;;;5073847;28;20044;-74
2023/03/26 12:43:50;;;;;;;2.65;1.33;;;10.90;97.20;;;;;;5073746;28;20030;-75
2023/03/26 12:46:31;;;;;;;3.85;1.40;;;10.90;97.20;;;;;;5074671;28;20028;-74
2023/03/26 12:48:59;;;;;;;2.78;1.23;;;11.00;97.30;;;;;;5074584;28;20080;-74
2023/03/26 12:51:43;;;;;;;3.15;1.48;;;11.10;97.20;;;;;;5057003;28;20096;-74
2023/03/26 12:54:31;;;;;;;2.63;1.73;;;11.10;97.10;;;;;;5074546;28;20029;-74
2023/03/26 12:57:19;;;;;;;4.00;1.63;;;11.10;97.00;;;;;;5073479;28;20032;-74
2023/03/26 13:00:20;;;;;;;4.68;2.35;;;11.10;96.80;;;;;;5073368;28;20029;-73
2023/03/26 13:03:16;;;;;;;5.13;2.45;;;11.20;96.80;;;;;;5074424;28;20084;-74
2023/03/26 13:06:25;;;;;;;3.58;2.35;;;11.20;96.60;;;;;;5073383;28;20033;-73
2023/03/26 13:09:09;;;;;;;3.92;2.00;;;11.30;96.80;;;;;;5074229;28;20032;-74
2023/03/26 13:11:49;;;;;;;4.75;2.10;;;11.30;96.60;;;;;;5074150;28;20028;-74
2023/03/26 13:14:20;;;;;;;3.47;2.10;;;11.30;96.40;;;;;;5074070;28;20031;-74
2023/03/26 13:17:03;;;;;;;4.50;2.30;;;11.20;96.30;;;;;;5073029;28;20087;-74
2023/03/26 13:19:36;;;;;;;;;;;11.20;96.30;;;;;;5073422;28;20021;-73
2023/03/26 13:22:25;;;;;;;4.03;2.20;;;11.10;96.20;;;;;;5073950;28;19930;-74
2023/03/26 13:25:05;;;;;;;4.85;2.42;;;11.00;96.00;;;;;;5073930;28;20017;-73